createdAt,value
2018-12-10T00:00:31.133Z,1018.72
2018-12-10T00:01:31.357Z,1018.77
2018-12-10T00:02:30.992Z,1018.77
2018-12-10T00:03:31.005Z,1018.77
2018-12-10T00:04:31.411Z,1018.79
2018-12-10T00:05:31.259Z,1018.75
2018-12-10T00:06:31.074Z,1018.79
2018-12-10T00:07:31.060Z,1018.77
2018-12-10T00:08:31.233Z,1018.87
2018-12-10T00:09:31.360Z,1018.85
2018-12-10T00:10:31.456Z,1018.85
2018-12-10T00:11:30.953Z,1018.9
2018-12-10T00:12:31.947Z,1018.85
2018-12-10T00:13:31.580Z,1018.81
2018-12-10T00:14:30.986Z,1018.85
2018-12-10T00:15:31.175Z,1018.85
2018-12-10T00:16:31.175Z,1018.87
2018-12-10T00:17:31.195Z,1018.84
2018-12-10T00:18:31.302Z,1018.89
2018-12-10T00:19:31.190Z,1018.89
2018-12-10T00:20:30.933Z,1018.87
2018-12-10T00:21:31.434Z,1018.89
2018-12-10T00:22:30.921Z,1018.91
2018-12-10T00:23:31.291Z,1018.94
2018-12-10T00:24:30.867Z,1018.97
2018-12-10T00:25:30.968Z,1018.97
2018-12-10T00:26:31.439Z,1018.95
2018-12-10T00:27:31.242Z,1018.95
2018-12-10T00:28:31.122Z,1018.98
2018-12-10T00:29:30.962Z,1018.96
2018-12-10T00:30:31.228Z,1018.96
2018-12-10T00:31:31.235Z,1018.97
2018-12-10T00:32:31.036Z,1018.98
2018-12-10T00:33:31.168Z,1018.99
2018-12-10T00:34:30.948Z,1018.99
2018-12-10T00:35:31.325Z,1019.03
2018-12-10T00:36:30.952Z,1019.04
2018-12-10T00:37:31.204Z,1019.11
2018-12-10T00:38:31.146Z,1019.09
2018-12-10T00:39:31.418Z,1019.12
2018-12-10T00:40:31.257Z,1019.13
2018-12-10T00:41:31.003Z,1019.13
2018-12-10T00:42:31.461Z,1019.11
2018-12-10T00:43:31.088Z,1019.14
2018-12-10T00:44:31.112Z,1019.19
2018-12-10T00:45:30.883Z,1019.17
2018-12-10T00:46:31.832Z,1019.2
2018-12-10T00:47:31.097Z,1019.21
2018-12-10T00:48:31.222Z,1019.24
2018-12-10T00:49:31.093Z,1019.24
2018-12-10T00:50:31.125Z,1019.23
2018-12-10T00:51:31.049Z,1019.25
2018-12-10T00:52:31.008Z,1019.24
2018-12-10T00:53:31.130Z,1019.24
2018-12-10T00:54:31.558Z,1019.29
2018-12-10T00:55:31.101Z,1019.27
2018-12-10T00:56:32.043Z,1019.25
2018-12-10T00:57:31.342Z,1019.31
2018-12-10T00:58:31.283Z,1019.34
2018-12-10T00:59:30.968Z,1019.38
2018-12-10T01:00:30.794Z,1019.39
2018-12-10T01:01:30.985Z,1019.45
2018-12-10T01:02:31.210Z,1019.48
2018-12-10T01:03:30.748Z,1019.5
2018-12-10T01:04:31.176Z,1019.53
2018-12-10T01:05:31.129Z,1019.54
2018-12-10T01:06:30.870Z,1019.61
2018-12-10T01:07:31.041Z,1019.59
2018-12-10T01:08:31.147Z,1019.65
2018-12-10T01:09:30.856Z,1019.7
2018-12-10T01:10:30.920Z,1019.65
2018-12-10T01:11:30.981Z,1019.67
2018-12-10T01:12:31.048Z,1019.66
2018-12-10T01:13:30.882Z,1019.71
2018-12-10T01:14:31.044Z,1019.73
2018-12-10T01:15:30.933Z,1019.71
2018-12-10T01:16:31.207Z,1019.72
2018-12-10T01:17:31.034Z,1019.76
2018-12-10T01:18:31.002Z,1019.79
2018-12-10T01:19:30.852Z,1019.77
2018-12-10T01:20:31.034Z,1019.84
2018-12-10T01:21:31.143Z,1019.87
2018-12-10T01:22:31.042Z,1019.91
2018-12-10T01:23:30.955Z,1019.9
2018-12-10T01:24:30.851Z,1019.89
2018-12-10T01:25:30.970Z,1019.9
2018-12-10T01:26:31.170Z,1019.79
2018-12-10T01:27:31.052Z,1019.89
2018-12-10T01:28:31.108Z,1020.01
2018-12-10T01:29:30.882Z,1019.99
2018-12-10T01:30:31.070Z,1020.02
2018-12-10T01:31:31.300Z,1020
2018-12-10T01:32:31.215Z,1020
2018-12-10T01:33:31.052Z,1020.05
2018-12-10T01:34:30.770Z,1020.1
2018-12-10T01:35:30.764Z,1020.07
2018-12-10T01:36:30.931Z,1020.11
2018-12-10T01:37:30.991Z,1020.09
2018-12-10T01:38:31.090Z,1020.1
2018-12-10T01:39:31.053Z,1020.16
2018-12-10T01:40:31.179Z,1020.11
2018-12-10T01:41:31.255Z,1020.16
2018-12-10T01:42:31.119Z,1020.17
2018-12-10T01:43:30.863Z,1020.09
2018-12-10T01:44:31.300Z,1020.08
2018-12-10T01:45:30.837Z,1020.08
2018-12-10T01:46:31.368Z,1020.07
2018-12-10T01:47:31.119Z,1020.07
2018-12-10T01:48:30.974Z,1020.1
2018-12-10T01:49:31.344Z,1020.17
2018-12-10T01:50:31.442Z,1020.22
2018-12-10T01:51:31.738Z,1020.22
2018-12-10T01:52:30.858Z,1020.28
2018-12-10T01:53:31.225Z,1020.29
2018-12-10T01:54:30.904Z,1020.38
2018-12-10T01:55:31.110Z,1020.33
2018-12-10T01:56:31.156Z,1020.28
2018-12-10T01:57:31.351Z,1020.28
2018-12-10T01:58:30.826Z,1020.32
2018-12-10T01:59:31.043Z,1020.33
2018-12-10T02:00:31.270Z,1020.32
2018-12-10T02:01:31.727Z,1020.35
2018-12-10T02:02:31.281Z,1020.31
2018-12-10T02:03:31.148Z,1020.32
2018-12-10T02:04:31.022Z,1020.3
2018-12-10T02:05:31.106Z,1020.29
2018-12-10T02:06:30.912Z,1020.3
2018-12-10T02:07:31.762Z,1020.29
2018-12-10T02:08:31.248Z,1020.31
2018-12-10T02:09:31.357Z,1020.3
2018-12-10T02:10:30.818Z,1020.34
2018-12-10T02:11:31.063Z,1020.37
2018-12-10T02:12:31.184Z,1020.36
2018-12-10T02:13:31.432Z,1020.33
2018-12-10T02:14:30.909Z,1020.4
2018-12-10T02:15:31.199Z,1020.38
2018-12-10T02:16:31.354Z,1020.4
2018-12-10T02:17:31.012Z,1020.36
2018-12-10T02:18:31.130Z,1020.38
2018-12-10T02:19:31.008Z,1020.37
2018-12-10T02:20:31.240Z,1020.36
2018-12-10T02:21:31.621Z,1020.35
2018-12-10T02:22:31.152Z,1020.36
2018-12-10T02:23:30.785Z,1020.38
2018-12-10T02:24:30.842Z,1020.34
2018-12-10T02:25:31.372Z,1020.34
2018-12-10T02:26:31.174Z,1020.34
2018-12-10T02:27:31.306Z,1020.36
2018-12-10T02:28:30.828Z,1020.37
2018-12-10T02:29:31.043Z,1020.39
2018-12-10T02:30:30.853Z,1020.46
2018-12-10T02:31:31.077Z,1020.42
2018-12-10T02:32:31.413Z,1020.42
2018-12-10T02:33:31.108Z,1020.46
2018-12-10T02:34:31.149Z,1020.45
2018-12-10T02:35:31.364Z,1020.47
2018-12-10T02:36:30.967Z,1020.47
2018-12-10T02:37:30.984Z,1020.49
2018-12-10T02:38:31.193Z,1020.53
2018-12-10T02:39:31.257Z,1020.61
2018-12-10T02:40:31.137Z,1020.59
2018-12-10T02:41:30.947Z,1020.61
2018-12-10T02:42:31.018Z,1020.66
2018-12-10T02:43:30.944Z,1020.66
2018-12-10T02:44:31.058Z,1020.72
2018-12-10T02:45:30.987Z,1020.71
2018-12-10T02:46:31.153Z,1020.7
2018-12-10T02:47:31.054Z,1020.73
2018-12-10T02:48:30.924Z,1020.75
2018-12-10T02:49:30.926Z,1020.77
2018-12-10T02:50:31.369Z,1020.84
2018-12-10T02:51:30.919Z,1020.8
2018-12-10T02:52:31.036Z,1020.85
2018-12-10T02:53:31.291Z,1020.86
2018-12-10T02:54:31.550Z,1020.85
2018-12-10T02:55:30.820Z,1020.81
2018-12-10T02:56:30.825Z,1020.82
2018-12-10T02:57:31.081Z,1020.8
2018-12-10T02:58:30.903Z,1020.83
2018-12-10T02:59:31.118Z,1020.9
2018-12-10T03:00:31.208Z,1020.88
2018-12-10T03:01:30.947Z,1020.94
2018-12-10T03:02:31.271Z,1020.94
2018-12-10T03:03:30.795Z,1021.01
2018-12-10T03:04:30.841Z,1020.96
2018-12-10T03:05:30.874Z,1021.05
2018-12-10T03:06:31.507Z,1021.02
2018-12-10T03:07:30.871Z,1021.04
2018-12-10T03:08:31.853Z,1021.04
2018-12-10T03:09:31.063Z,1021
2018-12-10T03:10:30.816Z,1021.02
2018-12-10T03:11:31.218Z,1021.06
2018-12-10T03:12:31.114Z,1020.99
2018-12-10T03:13:30.763Z,1021.04
2018-12-10T03:14:30.794Z,1020.97
2018-12-10T03:15:31.209Z,1020.99
2018-12-10T03:16:31.235Z,1020.95
2018-12-10T03:17:31.168Z,1021
2018-12-10T03:18:31.016Z,1021.05
2018-12-10T03:19:30.952Z,1021.12
2018-12-10T03:20:30.955Z,1021.06
2018-12-10T03:21:31.347Z,1021.14
2018-12-10T03:22:30.996Z,1021.06
2018-12-10T03:23:31.085Z,1021.04
2018-12-10T03:24:31.166Z,1021.07
2018-12-10T03:25:31.253Z,1021.12
2018-12-10T03:26:30.940Z,1021.18
2018-12-10T03:27:31.235Z,1021.14
2018-12-10T03:28:31.032Z,1021.19
2018-12-10T03:29:31.530Z,1021.18
2018-12-10T03:30:31.058Z,1021.22
2018-12-10T03:31:31.017Z,1021.24
2018-12-10T03:32:31.027Z,1021.22
2018-12-10T03:33:30.844Z,1021.2
2018-12-10T03:34:31.055Z,1021.19
2018-12-10T03:35:30.806Z,1021.3
2018-12-10T03:36:30.937Z,1021.27
2018-12-10T03:37:31.101Z,1021.29
2018-12-10T03:38:30.880Z,1021.3
2018-12-10T03:39:31.414Z,1021.26
2018-12-10T03:40:31.011Z,1021.35
2018-12-10T03:41:30.919Z,1021.35
2018-12-10T03:42:30.983Z,1021.36
2018-12-10T03:43:31.329Z,1021.41
2018-12-10T03:44:31.264Z,1021.44
2018-12-10T03:45:31.238Z,1021.4
2018-12-10T03:46:31.062Z,1021.41
2018-12-10T03:47:31.154Z,1021.38
2018-12-10T03:48:30.947Z,1021.37
2018-12-10T03:49:30.829Z,1021.37
2018-12-10T03:50:31.182Z,1021.41
2018-12-10T03:51:31.066Z,1021.44
2018-12-10T03:52:31.322Z,1021.46
2018-12-10T03:53:31.025Z,1021.51
2018-12-10T03:54:31.083Z,1021.53
2018-12-10T03:55:31.855Z,1021.53
2018-12-10T03:56:30.792Z,1021.51
2018-12-10T03:57:31.243Z,1021.5
2018-12-10T03:58:31.400Z,1021.53
2018-12-10T03:59:30.920Z,1021.53
2018-12-10T04:00:30.847Z,1021.58
2018-12-10T04:01:31.364Z,1021.6
2018-12-10T04:02:30.737Z,1021.58
2018-12-10T04:03:31.210Z,1021.58
2018-12-10T04:04:31.039Z,1021.57
2018-12-10T04:05:30.932Z,1021.59
2018-12-10T04:06:31.296Z,1021.58
2018-12-10T04:07:30.863Z,1021.49
2018-12-10T04:08:30.997Z,1021.48
2018-12-10T04:09:31.049Z,1021.51
2018-12-10T04:10:30.852Z,1021.51
2018-12-10T04:11:30.981Z,1021.49
2018-12-10T04:12:30.843Z,1021.54
2018-12-10T04:13:31.065Z,1021.49
2018-12-10T04:14:31.144Z,1021.52
2018-12-10T04:15:30.920Z,1021.49
2018-12-10T04:16:31.142Z,1021.5
2018-12-10T04:17:31.156Z,1021.5
2018-12-10T04:18:31.346Z,1021.51
2018-12-10T04:19:30.903Z,1021.53
2018-12-10T04:20:31.082Z,1021.56
2018-12-10T04:21:30.774Z,1021.58
2018-12-10T04:22:30.920Z,1021.58
2018-12-10T04:23:30.855Z,1021.65
2018-12-10T04:24:30.754Z,1021.6
2018-12-10T04:25:30.657Z,1021.63
2018-12-10T04:26:31.039Z,1021.61
2018-12-10T04:27:30.954Z,1021.61
2018-12-10T04:28:30.918Z,1021.61
2018-12-10T04:29:31.089Z,1021.61
2018-12-10T04:30:30.865Z,1021.62
2018-12-10T04:31:30.765Z,1021.63
2018-12-10T04:32:31.189Z,1021.69
2018-12-10T04:33:30.926Z,1021.66
2018-12-10T04:34:30.821Z,1021.69
2018-12-10T04:35:30.847Z,1021.67
2018-12-10T04:36:30.910Z,1021.73
2018-12-10T04:37:31.009Z,1021.7
2018-12-10T04:38:31.003Z,1021.69
2018-12-10T04:39:30.989Z,1021.69
2018-12-10T04:40:30.969Z,1021.71
2018-12-10T04:41:31.076Z,1021.71
2018-12-10T04:42:30.849Z,1021.71
2018-12-10T04:43:31.062Z,1021.68
2018-12-10T04:44:30.696Z,1021.69
2018-12-10T04:45:31.006Z,1021.71
2018-12-10T04:46:30.731Z,1021.8
2018-12-10T04:47:30.918Z,1021.76
2018-12-10T04:48:31.385Z,1021.77
2018-12-10T04:49:31.287Z,1021.84
2018-12-10T04:50:31.199Z,1021.82
2018-12-10T04:51:31.116Z,1021.82
2018-12-10T04:52:30.796Z,1021.83
2018-12-10T04:53:30.720Z,1021.81
2018-12-10T04:54:31.244Z,1021.81
2018-12-10T04:55:30.958Z,1021.79
2018-12-10T04:56:30.799Z,1021.82
2018-12-10T04:57:31.005Z,1021.84
2018-12-10T04:58:30.991Z,1021.83
2018-12-10T04:59:31.150Z,1021.85
2018-12-10T05:00:31.179Z,1021.86
2018-12-10T05:01:30.747Z,1021.87
2018-12-10T05:02:30.946Z,1021.94
2018-12-10T05:03:31.043Z,1021.95
2018-12-10T05:04:31.114Z,1021.95
2018-12-10T05:05:30.970Z,1021.98
2018-12-10T05:06:31.214Z,1021.99
2018-12-10T05:07:30.755Z,1022.03
2018-12-10T05:08:31.333Z,1022.06
2018-12-10T05:09:30.793Z,1022.01
2018-12-10T05:10:31.042Z,1022.04
2018-12-10T05:11:30.817Z,1022.04
2018-12-10T05:12:31.057Z,1022.07
2018-12-10T05:13:30.875Z,1022.11
2018-12-10T05:14:31.068Z,1022.15
2018-12-10T05:15:30.947Z,1022.15
2018-12-10T05:16:30.821Z,1022.2
2018-12-10T05:17:31.198Z,1022.25
2018-12-10T05:18:30.693Z,1022.29
2018-12-10T05:19:31.005Z,1022.29
2018-12-10T05:20:30.961Z,1022.28
2018-12-10T05:21:30.772Z,1022.27
2018-12-10T05:22:31.136Z,1022.27
2018-12-10T05:23:30.810Z,1022.33
2018-12-10T05:24:30.969Z,1022.36
2018-12-10T05:25:30.743Z,1022.31
2018-12-10T05:26:30.892Z,1022.37
2018-12-10T05:27:30.919Z,1022.42
2018-12-10T05:28:31.632Z,1022.45
2018-12-10T05:29:31.325Z,1022.42
2018-12-10T05:30:30.904Z,1022.42
2018-12-10T05:31:31.145Z,1022.44
2018-12-10T05:32:30.850Z,1022.46
2018-12-10T05:33:30.900Z,1022.49
2018-12-10T05:34:30.745Z,1022.5
2018-12-10T05:35:30.913Z,1022.52
2018-12-10T05:36:31.408Z,1022.46
2018-12-10T05:37:30.852Z,1022.47
2018-12-10T05:38:30.859Z,1022.46
2018-12-10T05:39:30.737Z,1022.54
2018-12-10T05:40:31.330Z,1022.56
2018-12-10T05:41:30.789Z,1022.53
2018-12-10T05:42:30.794Z,1022.56
2018-12-10T05:43:30.727Z,1022.61
2018-12-10T05:44:30.804Z,1022.62
2018-12-10T05:45:31.093Z,1022.62
2018-12-10T05:46:30.861Z,1022.62
2018-12-10T05:47:30.950Z,1022.63
2018-12-10T05:48:31.093Z,1022.69
2018-12-10T05:49:31.121Z,1022.69
2018-12-10T05:50:30.801Z,1022.79
2018-12-10T05:51:31.125Z,1022.77
2018-12-10T05:52:30.948Z,1022.82
2018-12-10T05:53:30.916Z,1022.78
2018-12-10T05:54:30.957Z,1022.76
2018-12-10T05:55:30.864Z,1022.85
2018-12-10T05:56:30.969Z,1022.79
2018-12-10T05:57:30.678Z,1022.76
2018-12-10T05:58:31.896Z,1022.89
2018-12-10T05:59:30.986Z,1022.82
2018-12-10T06:00:30.950Z,1022.83
2018-12-10T06:01:30.952Z,1022.83
2018-12-10T06:02:30.825Z,1022.83
2018-12-10T06:03:30.848Z,1022.86
2018-12-10T06:04:30.849Z,1022.85
2018-12-10T06:05:31.149Z,1022.91
2018-12-10T06:06:30.907Z,1022.9
2018-12-10T06:07:30.909Z,1022.91
2018-12-10T06:08:30.856Z,1022.93
2018-12-10T06:09:30.833Z,1022.97
2018-12-10T06:10:30.859Z,1022.91
2018-12-10T06:11:30.669Z,1022.91
2018-12-10T06:12:30.879Z,1022.98
2018-12-10T06:13:30.671Z,1022.99
2018-12-10T06:14:30.736Z,1023.05
2018-12-10T06:15:31.104Z,1023.08
2018-12-10T06:16:30.992Z,1023.08
2018-12-10T06:17:30.872Z,1023.07
2018-12-10T06:18:30.677Z,1023.14
2018-12-10T06:19:30.942Z,1023.14
2018-12-10T06:20:31.135Z,1023.12
2018-12-10T06:21:30.785Z,1023.13
2018-12-10T06:22:30.673Z,1023.23
2018-12-10T06:23:30.763Z,1023.17
2018-12-10T06:24:30.851Z,1023.18
2018-12-10T06:25:30.667Z,1023.16
2018-12-10T06:26:30.959Z,1023.17
2018-12-10T06:27:30.702Z,1023.25
2018-12-10T06:28:30.893Z,1023.24
2018-12-10T06:29:31.182Z,1023.24
2018-12-10T06:30:30.798Z,1023.23
2018-12-10T06:31:30.694Z,1023.23
2018-12-10T06:32:30.731Z,1023.22
2018-12-10T06:33:30.812Z,1023.24
2018-12-10T06:34:30.650Z,1023.19
2018-12-10T06:35:30.867Z,1023.16
2018-12-10T06:36:30.941Z,1023.2
2018-12-10T06:37:37.989Z,1023.21
2018-12-10T06:38:31.145Z,1023.25
2018-12-10T06:39:31.475Z,1023.25
2018-12-10T06:40:30.757Z,1023.25
2018-12-10T06:41:30.885Z,1023.29
2018-12-10T06:42:30.727Z,1023.28
2018-12-10T06:43:31.002Z,1023.25
2018-12-10T06:44:31.004Z,1023.26
2018-12-10T06:45:30.767Z,1023.26
2018-12-10T06:46:31.017Z,1023.18
2018-12-10T06:47:30.817Z,1023.23
2018-12-10T06:48:31.194Z,1023.26
2018-12-10T06:49:30.929Z,1023.27
2018-12-10T06:50:31.246Z,1023.3
2018-12-10T06:51:31.008Z,1023.35
2018-12-10T06:52:30.799Z,1023.32
2018-12-10T06:53:30.964Z,1023.38
2018-12-10T06:54:30.720Z,1023.31
2018-12-10T06:55:30.825Z,1023.35
2018-12-10T06:56:30.707Z,1023.29
2018-12-10T06:57:30.762Z,1023.35
2018-12-10T06:58:30.682Z,1023.36
2018-12-10T06:59:30.742Z,1023.32
2018-12-10T07:00:31.288Z,1023.36
2018-12-10T07:01:31.103Z,1023.31
2018-12-10T07:02:31.028Z,1023.33
2018-12-10T07:03:30.674Z,1023.4
2018-12-10T07:04:31.038Z,1023.41
2018-12-10T07:05:31.122Z,1023.41
2018-12-10T07:06:31.294Z,1023.48
2018-12-10T07:07:30.697Z,1023.49
2018-12-10T07:08:30.849Z,1023.47
2018-12-10T07:09:30.956Z,1023.46
2018-12-10T07:10:30.672Z,1023.45
2018-12-10T07:11:30.919Z,1023.5
2018-12-10T07:12:30.734Z,1023.47
2018-12-10T07:13:30.742Z,1023.44
2018-12-10T07:14:30.983Z,1023.48
2018-12-10T07:15:30.789Z,1023.48
2018-12-10T07:16:30.655Z,1023.45
2018-12-10T07:17:31.034Z,1023.48
2018-12-10T07:18:30.806Z,1023.47
2018-12-10T07:19:31.028Z,1023.5
2018-12-10T07:20:30.778Z,1023.49
2018-12-10T07:21:30.939Z,1023.5
2018-12-10T07:22:30.859Z,1023.52
2018-12-10T07:23:30.763Z,1023.51
2018-12-10T07:24:31.168Z,1023.55
2018-12-10T07:25:30.690Z,1023.49
2018-12-10T07:26:30.926Z,1023.47
2018-12-10T07:27:30.726Z,1023.51
2018-12-10T07:28:31.204Z,1023.47
2018-12-10T07:29:31.032Z,1023.52
2018-12-10T07:30:30.920Z,1023.54
2018-12-10T07:31:30.854Z,1023.56
2018-12-10T07:32:31.131Z,1023.56
2018-12-10T07:33:30.978Z,1023.6
2018-12-10T07:34:30.878Z,1023.63
2018-12-10T07:35:30.925Z,1023.63
2018-12-10T07:36:30.713Z,1023.62
2018-12-10T07:37:30.953Z,1023.65
2018-12-10T07:38:30.688Z,1023.66
2018-12-10T07:39:30.979Z,1023.68
2018-12-10T07:40:30.984Z,1023.66
2018-12-10T07:41:30.884Z,1023.66
2018-12-10T07:42:30.906Z,1023.67
2018-12-10T07:43:31.001Z,1023.63
2018-12-10T07:44:30.932Z,1023.69
2018-12-10T07:45:30.736Z,1023.64
2018-12-10T07:46:31.063Z,1023.65
2018-12-10T07:47:30.794Z,1023.65
2018-12-10T07:48:30.624Z,1023.66
2018-12-10T07:49:30.767Z,1023.69
2018-12-10T07:50:31.540Z,1023.7
2018-12-10T07:51:30.959Z,1023.71
2018-12-10T07:52:30.842Z,1023.73
2018-12-10T07:53:30.842Z,1023.74
2018-12-10T07:54:30.939Z,1023.72
2018-12-10T07:55:30.790Z,1023.76
2018-12-10T07:56:30.752Z,1023.82
2018-12-10T07:57:30.877Z,1023.77
2018-12-10T07:58:30.949Z,1023.85
2018-12-10T07:59:30.748Z,1023.83
2018-12-10T08:00:31.007Z,1023.82
2018-12-10T08:01:30.789Z,1023.86
2018-12-10T08:02:30.926Z,1023.84
2018-12-10T08:03:30.836Z,1023.79
2018-12-10T08:04:30.834Z,1023.91
2018-12-10T08:05:30.925Z,1023.86
2018-12-10T08:06:30.655Z,1023.9
2018-12-10T08:07:30.916Z,1023.9
2018-12-10T08:08:30.748Z,1023.95
2018-12-10T08:09:30.781Z,1023.97
2018-12-10T08:10:30.804Z,1023.97
2018-12-10T08:11:30.825Z,1023.99
2018-12-10T08:12:30.998Z,1024.03
2018-12-10T08:13:31.442Z,1024.05
2018-12-10T08:14:31.102Z,1024.03
2018-12-10T08:15:30.631Z,1024.07
2018-12-10T08:16:30.778Z,1024.05
2018-12-10T08:17:30.635Z,1024.03
2018-12-10T08:18:31.015Z,1024.03
2018-12-10T08:19:31.211Z,1024.02
2018-12-10T08:20:30.966Z,1024.05
2018-12-10T08:21:31.145Z,1024.1
2018-12-10T08:22:30.718Z,1024.11
2018-12-10T08:23:31.511Z,1024.09
2018-12-10T08:24:30.956Z,1024.12
2018-12-10T08:25:31.274Z,1024.11
2018-12-10T08:26:31.093Z,1024.18
2018-12-10T08:27:30.801Z,1024.14
2018-12-10T08:28:30.790Z,1024.12
2018-12-10T08:29:30.919Z,1024.1
2018-12-10T08:30:31.258Z,1024.13
2018-12-10T08:31:30.664Z,1024.11
2018-12-10T08:32:30.890Z,1024.18
2018-12-10T08:33:30.726Z,1024.12
2018-12-10T08:34:30.934Z,1024.18
2018-12-10T08:35:31.168Z,1024.16
2018-12-10T08:36:30.767Z,1024.17
2018-12-10T08:37:31.094Z,1024.15
2018-12-10T08:38:30.676Z,1024.17
2018-12-10T08:39:30.769Z,1024.18
2018-12-10T08:40:31.066Z,1024.23
2018-12-10T08:41:30.710Z,1024.24
2018-12-10T08:42:31.015Z,1024.2
2018-12-10T08:43:31.143Z,1024.24
2018-12-10T08:44:30.936Z,1024.25
2018-12-10T08:45:30.775Z,1024.25
2018-12-10T08:46:30.786Z,1024.27
2018-12-10T08:47:30.876Z,1024.3
2018-12-10T08:48:30.814Z,1024.29
2018-12-10T08:49:31.249Z,1024.29
2018-12-10T08:50:30.913Z,1024.26
2018-12-10T08:51:30.647Z,1024.29
2018-12-10T08:52:30.935Z,1024.24
2018-12-10T08:53:31.078Z,1024.32
2018-12-10T08:54:30.662Z,1024.3
2018-12-10T08:55:30.917Z,1024.31
2018-12-10T08:56:31.166Z,1024.31
2018-12-10T08:57:31.270Z,1024.38
2018-12-10T08:58:34.902Z,1024.37
2018-12-10T08:59:35.269Z,1024.4
2018-12-10T09:00:30.799Z,1024.35
2018-12-10T09:01:30.937Z,1024.38
2018-12-10T09:02:31.344Z,1024.37
2018-12-10T09:03:31.705Z,1024.37
2018-12-10T09:04:31.003Z,1024.4
2018-12-10T09:05:31.077Z,1024.43
2018-12-10T09:06:30.885Z,1024.4
2018-12-10T09:07:30.715Z,1024.4
2018-12-10T09:08:30.850Z,1024.45
2018-12-10T09:09:30.766Z,1024.45
2018-12-10T09:10:31.248Z,1024.44
2018-12-10T09:11:30.990Z,1024.51
2018-12-10T09:12:30.761Z,1024.51
2018-12-10T09:13:30.932Z,1024.55
2018-12-10T09:14:30.801Z,1024.51
2018-12-10T09:15:30.842Z,1024.56
2018-12-10T09:16:31.189Z,1024.52
2018-12-10T09:17:31.181Z,1024.48
2018-12-10T09:18:31.258Z,1024.54
2018-12-10T09:19:31.198Z,1024.55
2018-12-10T09:20:30.691Z,1024.56
2018-12-10T09:21:30.865Z,1024.56
2018-12-10T09:22:30.897Z,1024.58
2018-12-10T09:23:30.867Z,1024.57
2018-12-10T09:24:30.923Z,1024.6
2018-12-10T09:25:31.236Z,1024.64
2018-12-10T09:26:31.189Z,1024.64
2018-12-10T09:27:30.619Z,1024.61
2018-12-10T09:28:31.143Z,1024.63
2018-12-10T09:29:31.151Z,1024.73
2018-12-10T09:30:31.079Z,1024.6
2018-12-10T09:31:30.755Z,1024.71
2018-12-10T09:32:30.740Z,1024.74
2018-12-10T09:33:30.816Z,1024.72
2018-12-10T09:34:30.629Z,1024.73
2018-12-10T09:35:30.864Z,1024.8
2018-12-10T09:36:30.704Z,1024.84
2018-12-10T09:37:30.875Z,1024.88
2018-12-10T09:38:30.661Z,1024.84
2018-12-10T09:39:30.776Z,1024.86
2018-12-10T09:40:30.929Z,1024.8
2018-12-10T09:41:30.620Z,1024.83
2018-12-10T09:42:31.049Z,1024.82
2018-12-10T09:43:30.781Z,1024.89
2018-12-10T09:44:30.761Z,1024.89
2018-12-10T09:45:30.590Z,1024.88
2018-12-10T09:46:31.071Z,1024.9
2018-12-10T09:47:30.818Z,1024.9
2018-12-10T09:48:30.699Z,1024.91
2018-12-10T09:49:30.890Z,1024.88
2018-12-10T09:50:30.679Z,1024.91
2018-12-10T09:51:30.850Z,1024.95
2018-12-10T09:52:31.233Z,1024.96
2018-12-10T09:53:31.149Z,1024.96
2018-12-10T09:54:30.770Z,1024.96
2018-12-10T09:55:31.034Z,1024.97
2018-12-10T09:56:31.057Z,1024.98
2018-12-10T09:57:31.038Z,1024.99
2018-12-10T09:58:30.885Z,1025
2018-12-10T09:59:30.646Z,1024.99
2018-12-10T10:00:31.035Z,1024.97
2018-12-10T10:01:30.917Z,1024.94
2018-12-10T10:02:30.617Z,1024.89
2018-12-10T10:03:30.621Z,1024.88
2018-12-10T10:04:31.140Z,1024.91
2018-12-10T10:05:30.751Z,1024.9
2018-12-10T10:06:31.480Z,1024.95
2018-12-10T10:07:31.404Z,1024.96
2018-12-10T10:08:30.723Z,1024.95
2018-12-10T10:09:30.984Z,1024.94
2018-12-10T10:10:31.528Z,1024.89
2018-12-10T10:11:30.658Z,1024.88
2018-12-10T10:12:31.222Z,1024.87
2018-12-10T10:13:31.136Z,1024.83
2018-12-10T10:14:31.070Z,1024.92
2018-12-10T10:15:30.654Z,1024.88
2018-12-10T10:16:30.887Z,1024.91
2018-12-10T10:17:30.804Z,1024.85
2018-12-10T10:18:31.320Z,1024.89
2018-12-10T10:19:30.860Z,1024.92
2018-12-10T10:20:30.633Z,1024.89
2018-12-10T10:21:30.872Z,1024.84
2018-12-10T10:22:31.018Z,1024.94
2018-12-10T10:23:30.660Z,1024.91
2018-12-10T10:24:31.091Z,1024.91
2018-12-10T10:25:31.037Z,1024.94
2018-12-10T10:26:30.756Z,1024.91
2018-12-10T10:27:30.998Z,1024.92
2018-12-10T10:28:30.747Z,1024.91
2018-12-10T10:29:30.781Z,1024.9
2018-12-10T10:30:30.624Z,1024.95
2018-12-10T10:31:31.672Z,1024.94
2018-12-10T10:32:30.779Z,1024.91
2018-12-10T10:33:32.803Z,1024.92
2018-12-10T10:34:31.160Z,1024.93
2018-12-10T10:35:31.646Z,1024.94
2018-12-10T10:36:30.780Z,1024.94
2018-12-10T10:37:30.761Z,1025.01
2018-12-10T10:38:30.804Z,1025.05
2018-12-10T10:39:30.692Z,1024.96
2018-12-10T10:40:30.967Z,1025.01
2018-12-10T10:41:31.813Z,1024.98
2018-12-10T10:42:30.803Z,1024.98
2018-12-10T10:43:31.044Z,1024.93
2018-12-10T10:44:31.094Z,1024.95
2018-12-10T10:45:35.245Z,1024.91
2018-12-10T10:46:30.621Z,1024.9
2018-12-10T10:47:30.849Z,1024.87
2018-12-10T10:48:31.098Z,1024.86
2018-12-10T10:49:30.756Z,1024.85
2018-12-10T10:50:31.019Z,1024.8
2018-12-10T10:51:30.745Z,1024.88
2018-12-10T10:52:33.746Z,1024.86
2018-12-10T10:53:31.260Z,1024.89
2018-12-10T10:54:30.802Z,1024.82
2018-12-10T10:55:30.827Z,1024.83
2018-12-10T10:56:30.692Z,1024.84
2018-12-10T10:57:31.755Z,1024.81
2018-12-10T10:58:30.720Z,1024.84
2018-12-10T10:59:31.196Z,1024.79
2018-12-10T11:00:30.818Z,1024.78
2018-12-10T11:01:30.801Z,1024.8
2018-12-10T11:02:31.168Z,1024.8
2018-12-10T11:03:31.032Z,1024.79
2018-12-10T11:04:38.052Z,1024.83
2018-12-10T11:05:30.987Z,1024.8
2018-12-10T11:06:31.201Z,1024.84
2018-12-10T11:07:31.718Z,1024.78
2018-12-10T11:08:30.599Z,1024.81
2018-12-10T11:09:30.712Z,1024.83
2018-12-10T11:10:31.107Z,1024.79
2018-12-10T11:11:30.696Z,1024.81
2018-12-10T11:12:31.349Z,1024.79
2018-12-10T11:13:30.950Z,1024.82
2018-12-10T11:14:30.890Z,1024.84
2018-12-10T11:15:30.858Z,1024.82
2018-12-10T11:16:30.988Z,1024.77
2018-12-10T11:17:31.145Z,1024.82
2018-12-10T11:18:30.882Z,1024.76
2018-12-10T11:19:30.679Z,1024.72
2018-12-10T11:20:30.736Z,1024.69
2018-12-10T11:21:31.022Z,1024.74
2018-12-10T11:22:30.782Z,1024.72
2018-12-10T11:23:31.144Z,1024.74
2018-12-10T11:24:30.907Z,1024.72
2018-12-10T11:25:30.672Z,1024.79
2018-12-10T11:26:30.673Z,1024.71
2018-12-10T11:27:30.658Z,1024.69
2018-12-10T11:28:31.004Z,1024.7
2018-12-10T11:29:30.702Z,1024.71
2018-12-10T11:30:31.261Z,1024.71
2018-12-10T11:31:30.760Z,1024.7
2018-12-10T11:32:30.693Z,1024.68
2018-12-10T11:33:31.036Z,1024.65
2018-12-10T11:34:30.964Z,1024.65
2018-12-10T11:35:30.792Z,1024.61
2018-12-10T11:36:30.771Z,1024.6
2018-12-10T11:37:31.147Z,1024.51
2018-12-10T11:38:31.165Z,1024.52
2018-12-10T11:39:30.710Z,1024.51
2018-12-10T11:40:30.542Z,1024.54
2018-12-10T11:41:30.790Z,1024.51
2018-12-10T11:42:30.879Z,1024.52
2018-12-10T11:43:30.721Z,1024.51
2018-12-10T11:44:30.776Z,1024.49
2018-12-10T11:45:30.613Z,1024.47
2018-12-10T11:46:31.518Z,1024.47
2018-12-10T11:47:30.995Z,1024.41
2018-12-10T11:48:30.754Z,1024.45
2018-12-10T11:49:31.130Z,1024.44
2018-12-10T11:50:31.232Z,1024.43
2018-12-10T11:51:30.837Z,1024.42
2018-12-10T11:52:30.714Z,1024.39
2018-12-10T11:53:30.698Z,1024.38
2018-12-10T11:54:30.926Z,1024.36
2018-12-10T11:55:31.037Z,1024.34
2018-12-10T11:56:31.200Z,1024.4
2018-12-10T11:57:31.071Z,1024.37
2018-12-10T11:58:31.213Z,1024.34
2018-12-10T11:59:30.723Z,1024.37
2018-12-10T12:00:30.625Z,1024.31
2018-12-10T12:01:31.187Z,1024.3
2018-12-10T12:02:30.723Z,1024.33
2018-12-10T12:03:30.688Z,1024.29
2018-12-10T12:04:30.557Z,1024.27
2018-12-10T12:05:30.952Z,1024.28
2018-12-10T12:06:30.721Z,1024.28
2018-12-10T12:07:30.740Z,1024.25
2018-12-10T12:08:31.516Z,1024.25